createdAt,value
2018-06-07T00:00:32.248Z,57.83
2018-06-07T00:01:36.546Z,57.21
2018-06-07T00:02:40.948Z,57.40
2018-06-07T00:03:45.295Z,57.38
2018-06-07T00:04:49.732Z,58.07
2018-06-07T00:05:54.330Z,58.22
2018-06-07T00:06:59.255Z,57.76
2018-06-07T00:08:03.822Z,57.50
2018-06-07T00:09:08.430Z,58.18
2018-06-07T00:10:12.786Z,57.55
2018-06-07T00:11:17.259Z,57.58
2018-06-07T00:12:21.626Z,57.61
2018-06-07T00:13:25.964Z,58.11
2018-06-07T00:14:30.352Z,57.74
2018-06-07T00:15:34.743Z,58.17
2018-06-07T00:16:39.195Z,57.82
2018-06-07T00:17:43.461Z,58.65
2018-06-07T00:18:47.839Z,58.27
2018-06-07T00:19:52.201Z,58.02
2018-06-07T00:20:56.588Z,58.75
2018-06-07T00:22:00.931Z,58.24
2018-06-07T00:23:05.490Z,58.35
2018-06-07T00:24:09.797Z,58.39
2018-06-07T00:25:14.174Z,59.28
2018-06-07T00:26:18.750Z,59.06
2018-06-07T00:27:23.082Z,58.71
2018-06-07T00:28:27.614Z,58.87
2018-06-07T00:29:31.912Z,59.42
2018-06-07T00:30:36.404Z,58.90
2018-06-07T00:31:40.789Z,59.28
2018-06-07T00:32:45.088Z,59.57
2018-06-07T00:33:49.395Z,59.41
2018-06-07T00:35:56.826Z,59.27
2018-06-07T00:37:01.221Z,59.44
2018-06-07T00:38:05.570Z,59.85
2018-06-07T00:39:09.994Z,59.32
2018-06-07T00:40:14.423Z,59.71
2018-06-07T00:41:18.721Z,60.07
2018-06-07T00:42:23.092Z,59.81
2018-06-07T00:43:27.385Z,59.68
2018-06-07T00:44:31.672Z,59.84
2018-06-07T00:45:36.170Z,60.39
2018-06-07T00:46:40.693Z,60.20
2018-06-07T00:47:45.072Z,60.17
2018-06-07T00:48:49.664Z,60.18
2018-06-07T00:49:54.140Z,60.93
2018-06-07T00:50:58.592Z,60.52
2018-06-07T00:52:02.923Z,60.61
2018-06-07T00:53:07.306Z,61.19
2018-06-07T00:54:11.903Z,60.93
2018-06-07T00:55:16.676Z,60.75
2018-06-07T00:56:32.064Z,60.57
2018-06-07T00:57:36.447Z,60.85
2018-06-07T00:58:40.805Z,61.31
2018-06-07T00:59:45.097Z,61.43
2018-06-07T01:00:49.726Z,61.22
2018-06-07T01:01:54.870Z,61.03
2018-06-07T01:02:59.201Z,60.87
2018-06-07T01:04:03.651Z,60.86
2018-06-07T01:05:08.068Z,61.58
2018-06-07T01:06:12.500Z,61.54
2018-06-07T01:07:16.837Z,61.34
2018-06-07T01:08:21.282Z,61.57
2018-06-07T01:09:25.693Z,61.73
2018-06-07T01:10:30.228Z,61.30
2018-06-07T01:11:34.921Z,61.88
2018-06-07T01:12:39.264Z,61.65
2018-06-07T01:13:43.737Z,61.96
2018-06-07T01:14:48.066Z,61.63
2018-06-07T01:15:52.407Z,61.83
2018-06-07T01:16:56.759Z,62.05
2018-06-07T01:18:01.148Z,61.93
2018-06-07T01:19:05.600Z,61.52
2018-06-07T01:20:10.255Z,61.42
2018-06-07T01:21:14.847Z,62.12
2018-06-07T01:22:19.127Z,61.52
2018-06-07T01:23:24.619Z,61.98
2018-06-07T01:24:29.098Z,61.56
2018-06-07T01:25:33.586Z,62.25
2018-06-07T01:26:38.008Z,61.90
2018-06-07T01:27:42.396Z,62.06
2018-06-07T01:28:46.745Z,62.32
2018-06-07T01:30:02.122Z,61.77
2018-06-07T01:31:11.684Z,61.80
2018-06-07T01:33:33.533Z,61.73
2018-06-07T01:34:37.995Z,62.68
2018-06-07T01:35:42.529Z,62.00
2018-06-07T01:36:47.008Z,62.25
2018-06-07T01:38:02.605Z,62.58
2018-06-07T01:39:09.692Z,62.57
2018-06-07T01:40:14.083Z,62.91
2018-06-07T01:41:18.553Z,62.37
2018-06-07T01:42:22.927Z,62.80
2018-06-07T01:43:27.235Z,62.97
2018-06-07T01:44:31.727Z,62.50
2018-06-07T01:45:36.476Z,62.90
2018-06-07T01:46:41.031Z,62.54
2018-06-07T01:47:45.364Z,62.58
2018-06-07T01:48:49.908Z,62.50
2018-06-07T01:49:54.231Z,62.72
2018-06-07T01:50:58.572Z,62.58
2018-06-07T01:52:03.061Z,62.54
2018-06-07T01:53:07.419Z,63.09
2018-06-07T01:54:11.738Z,62.75
2018-06-07T01:55:16.205Z,62.85
2018-06-07T01:56:20.524Z,63.41
2018-06-07T01:57:24.997Z,62.63
2018-06-07T01:58:30.027Z,63.02
2018-06-07T01:59:34.620Z,63.50
2018-06-07T02:00:38.976Z,62.94
2018-06-07T02:01:43.348Z,62.85
2018-06-07T02:02:47.593Z,63.53
2018-06-07T02:03:51.911Z,62.80
2018-06-07T02:04:56.480Z,62.91
2018-06-07T02:06:00.760Z,63.11
2018-06-07T02:07:05.079Z,63.22
2018-06-07T02:08:09.391Z,62.93
2018-06-07T02:09:13.811Z,63.11
2018-06-07T02:10:18.350Z,63.24
2018-06-07T02:11:22.727Z,63.15
2018-06-07T02:12:27.120Z,63.73
2018-06-07T02:13:31.484Z,63.04
2018-06-07T02:14:35.814Z,63.38
2018-06-07T02:15:40.419Z,63.14
2018-06-07T02:16:44.948Z,63.50
2018-06-07T02:17:49.268Z,63.43
2018-06-07T02:18:53.580Z,63.10
2018-06-07T02:19:58.447Z,63.30
2018-06-07T02:21:02.892Z,64.04
2018-06-07T02:22:07.192Z,63.97
2018-06-07T02:23:11.904Z,63.26
2018-06-07T02:24:16.532Z,63.33
2018-06-07T02:25:20.856Z,63.51
2018-06-07T02:26:25.140Z,63.54
2018-06-07T02:27:29.437Z,63.74
2018-06-07T02:28:33.740Z,63.98
2018-06-07T02:29:38.064Z,63.89
2018-06-07T02:30:42.368Z,64.14
2018-06-07T02:31:46.824Z,64.23
2018-06-07T02:32:51.331Z,64.04
2018-06-07T02:33:55.661Z,64.53
2018-06-07T02:35:00.032Z,63.81
2018-06-07T02:36:04.303Z,63.78
2018-06-07T02:37:08.623Z,63.79
2018-06-07T02:38:13.116Z,64.13
2018-06-07T02:39:17.483Z,64.15
2018-06-07T02:40:22.079Z,64.46
2018-06-07T02:41:26.390Z,64.44
2018-06-07T02:42:30.667Z,63.83
2018-06-07T02:43:35.071Z,63.98
2018-06-07T02:44:39.701Z,63.93
2018-06-07T02:45:44.317Z,64.03
2018-06-07T02:46:48.709Z,65.06
2018-06-07T02:47:53.142Z,64.61
2018-06-07T02:48:57.463Z,64.85
2018-06-07T02:50:01.783Z,65.02
2018-06-07T02:51:06.079Z,65.05
2018-06-07T02:52:10.417Z,64.68
2018-06-07T02:53:14.847Z,64.15
2018-06-07T02:54:19.188Z,64.26
2018-06-07T02:55:23.488Z,64.82
2018-06-07T02:56:28.028Z,64.67
2018-06-07T02:57:32.385Z,63.80
2018-06-07T02:58:36.811Z,63.95
2018-06-07T02:59:41.041Z,63.36
2018-06-07T03:00:45.544Z,63.91
2018-06-07T03:01:49.836Z,63.17
2018-06-07T03:02:54.163Z,62.91
2018-06-07T03:03:58.688Z,62.87
2018-06-07T03:05:03.128Z,62.63
2018-06-07T03:06:07.473Z,62.70
2018-06-07T03:07:11.731Z,63.08
2018-06-07T03:08:16.104Z,63.07
2018-06-07T03:09:20.625Z,62.52
2018-06-07T03:10:25.159Z,62.29
2018-06-07T03:11:29.635Z,62.76
2018-06-07T03:12:34.005Z,62.53
2018-06-07T03:13:38.634Z,61.78
2018-06-07T03:14:43.099Z,62.49
2018-06-07T03:15:47.592Z,62.38
2018-06-07T03:16:51.887Z,62.38
2018-06-07T03:17:56.338Z,61.87
2018-06-07T03:19:00.816Z,61.82
2018-06-07T03:20:05.384Z,62.48
2018-06-07T03:21:09.660Z,62.54
2018-06-07T03:22:14.137Z,62.33
2018-06-07T03:23:18.630Z,62.51
2018-06-07T03:24:23.064Z,61.74
2018-06-07T03:25:27.583Z,62.12
2018-06-07T03:26:31.849Z,61.55
2018-06-07T03:27:36.046Z,61.74
2018-06-07T03:28:40.368Z,61.43
2018-06-07T03:29:44.888Z,60.97
2018-06-07T03:30:49.162Z,61.20
2018-06-07T03:31:53.541Z,61.59
2018-06-07T03:32:58.177Z,61.25
2018-06-07T03:34:02.508Z,61.59
2018-06-07T03:35:06.799Z,61.51
2018-06-07T03:36:11.248Z,61.43
2018-06-07T03:37:15.750Z,61.08
2018-06-07T03:38:20.242Z,60.50
2018-06-07T03:39:24.562Z,60.71
2018-06-07T03:40:29.233Z,60.72
2018-06-07T03:41:33.878Z,61.00
2018-06-07T03:42:38.234Z,60.77
2018-06-07T03:43:42.578Z,60.76
2018-06-07T03:44:46.916Z,60.84
2018-06-07T03:45:51.608Z,60.46
2018-06-07T03:46:55.930Z,60.78
2018-06-07T03:48:00.292Z,60.28
2018-06-07T03:49:04.621Z,60.73
2018-06-07T03:50:08.869Z,60.42
2018-06-07T03:51:13.224Z,59.88
2018-06-07T03:52:17.579Z,60.68
2018-06-07T03:53:21.904Z,59.88
2018-06-07T03:54:26.488Z,60.43
2018-06-07T03:55:30.773Z,60.07
2018-06-07T03:56:35.203Z,59.90
2018-06-07T03:57:39.488Z,60.19
2018-06-07T03:58:43.980Z,59.44
2018-06-07T03:59:48.320Z,60.08
2018-06-07T04:00:52.877Z,59.98
2018-06-07T04:01:57.396Z,59.78
2018-06-07T04:03:01.742Z,59.68
2018-06-07T04:04:06.178Z,59.82
2018-06-07T04:05:10.481Z,59.48
2018-06-07T04:06:14.827Z,59.15
2018-06-07T04:07:19.209Z,59.19
2018-06-07T04:08:23.535Z,59.22
2018-06-07T04:09:27.946Z,59.73
2018-06-07T04:10:32.268Z,59.51
2018-06-07T04:11:36.827Z,59.85
2018-06-07T04:12:41.286Z,59.74
2018-06-07T04:13:45.700Z,60.08
2018-06-07T04:14:50.034Z,59.26
2018-06-07T04:15:54.485Z,59.45
2018-06-07T04:16:58.952Z,60.07
2018-06-07T04:18:03.315Z,59.97
2018-06-07T04:19:07.703Z,60.12
2018-06-07T04:20:11.991Z,60.16
2018-06-07T04:21:16.389Z,59.88
2018-06-07T04:22:20.927Z,59.46
2018-06-07T04:23:25.421Z,59.91
2018-06-07T04:24:29.875Z,60.46
2018-06-07T04:25:34.210Z,59.74
2018-06-07T04:26:38.792Z,59.66
2018-06-07T04:27:43.264Z,60.28
2018-06-07T04:28:47.603Z,60.12
2018-06-07T04:29:51.912Z,60.19
2018-06-07T04:30:56.689Z,59.92
2018-06-07T04:32:01.101Z,60.16
2018-06-07T04:33:05.595Z,59.96
2018-06-07T04:34:09.995Z,59.76
2018-06-07T04:35:14.522Z,60.37
2018-06-07T04:36:19.075Z,59.79
2018-06-07T04:37:23.447Z,59.95
2018-06-07T04:38:28.189Z,60.16
2018-06-07T04:39:33.238Z,60.36
2018-06-07T04:40:37.714Z,60.65
2018-06-07T04:41:42.263Z,60.14
2018-06-07T04:42:46.595Z,60.23
2018-06-07T04:43:51.106Z,60.68
2018-06-07T04:44:55.408Z,60.21
2018-06-07T04:46:00.080Z,60.68
2018-06-07T04:47:04.716Z,60.42
2018-06-07T04:48:09.017Z,60.28
2018-06-07T04:49:13.359Z,60.69
2018-06-07T04:50:17.842Z,60.71
2018-06-07T04:51:22.183Z,60.61
2018-06-07T04:52:27.082Z,60.61
2018-06-07T04:53:31.369Z,60.54
2018-06-07T04:54:35.743Z,60.62
2018-06-07T04:55:40.191Z,59.98
2018-06-07T04:56:44.708Z,60.75
2018-06-07T04:57:48.994Z,60.03
2018-06-07T04:58:53.366Z,60.41
2018-06-07T04:59:57.704Z,59.73
2018-06-07T05:01:02.317Z,60.45
2018-06-07T05:02:06.658Z,59.72
2018-06-07T05:03:11.303Z,59.62
2018-06-07T05:04:15.615Z,60.37
2018-06-07T05:05:20.102Z,60.34
2018-06-07T05:06:24.644Z,59.45
2018-06-07T05:07:28.999Z,59.71
2018-06-07T05:08:33.367Z,59.57
2018-06-07T05:09:37.578Z,59.64
2018-06-07T05:10:41.875Z,59.05
2018-06-07T05:11:46.275Z,58.92
2018-06-07T05:12:50.643Z,58.99
2018-06-07T05:13:54.970Z,59.00
2018-06-07T05:14:59.448Z,58.81
2018-06-07T05:16:04.008Z,58.42
2018-06-07T05:17:08.484Z,58.74
2018-06-07T05:18:12.862Z,57.81
2018-06-07T05:19:17.326Z,58.18
2018-06-07T05:20:21.814Z,58.15
2018-06-07T05:21:26.195Z,58.54
2018-06-07T05:22:30.568Z,58.27
2018-06-07T05:23:34.938Z,58.53
2018-06-07T05:24:39.447Z,57.69
2018-06-07T05:25:44.023Z,57.59
2018-06-07T05:26:48.455Z,57.54
2018-06-07T05:27:52.926Z,57.81
2018-06-07T05:28:57.544Z,57.10
2018-06-07T05:30:02.216Z,57.06
2018-06-07T05:31:06.487Z,57.33
2018-06-07T05:32:11.108Z,56.66
2018-06-07T05:33:15.520Z,56.38
2018-06-07T05:34:19.879Z,56.74
2018-06-07T05:35:24.394Z,56.15
2018-06-07T05:36:28.887Z,56.42
2018-06-07T05:37:33.228Z,56.19
2018-06-07T05:38:37.640Z,56.04
2018-06-07T05:39:42.256Z,55.84
2018-06-07T05:40:46.527Z,55.62
2018-06-07T05:41:51.031Z,55.43
2018-06-07T05:42:55.324Z,55.78
2018-06-07T05:43:59.615Z,55.53
2018-06-07T05:45:04.255Z,56.08
2018-06-07T05:46:08.907Z,55.68
2018-06-07T05:47:13.218Z,56.21
2018-06-07T05:48:17.731Z,56.09
2018-06-07T05:49:22.355Z,55.83
2018-06-07T05:50:26.669Z,56.68
2018-06-07T05:51:31.100Z,56.77
2018-06-07T05:52:35.483Z,56.29
2018-06-07T05:53:39.796Z,56.16
2018-06-07T05:54:44.484Z,56.23
2018-06-07T05:55:48.829Z,56.27
2018-06-07T05:56:53.338Z,56.72
2018-06-07T05:57:57.676Z,56.33
2018-06-07T05:59:02.004Z,56.17
2018-06-07T06:00:06.518Z,56.63
2018-06-07T06:01:10.868Z,56.32
2018-06-07T06:02:15.424Z,56.61
2018-06-07T06:03:19.722Z,56.24
2018-06-07T06:04:24.413Z,56.09
2018-06-07T06:05:29.041Z,56.67
2018-06-07T06:06:33.550Z,56.81
2018-06-07T06:07:37.828Z,56.03
2018-06-07T06:08:42.731Z,56.45
2018-06-07T06:09:47.733Z,55.67
2018-06-07T06:10:52.447Z,56.03
2018-06-07T06:11:56.765Z,55.51
2018-06-07T06:13:01.267Z,55.42
2018-06-07T06:14:05.570Z,55.11
2018-06-07T06:15:10.046Z,54.99
2018-06-07T06:16:14.430Z,54.61
2018-06-07T06:17:18.697Z,54.81
2018-06-07T06:18:23.278Z,54.83
2018-06-07T06:19:27.705Z,54.17
2018-06-07T06:20:32.097Z,53.86
2018-06-07T06:21:36.560Z,53.99
2018-06-07T06:22:40.944Z,53.97
2018-06-07T06:23:45.422Z,53.55
2018-06-07T06:24:49.781Z,53.93
2018-06-07T06:25:54.058Z,53.73
2018-06-07T06:26:58.376Z,53.34
2018-06-07T06:28:02.706Z,53.65
2018-06-07T06:29:07.067Z,52.75
2018-06-07T06:30:11.691Z,52.40
2018-06-07T06:31:16.386Z,52.87
2018-06-07T06:32:20.908Z,52.91
2018-06-07T06:33:25.504Z,52.76
2018-06-07T06:34:29.951Z,52.53
2018-06-07T06:35:34.454Z,52.73
2018-06-07T06:36:39.034Z,52.49
2018-06-07T06:38:52.217Z,51.46
2018-06-07T06:39:56.655Z,51.66
2018-06-07T06:41:01.658Z,51.68
2018-06-07T06:42:05.923Z,52.40
2018-06-07T06:43:10.265Z,52.29
2018-06-07T06:44:14.672Z,51.79
2018-06-07T06:45:19.410Z,51.64
2018-06-07T06:46:24.239Z,51.93
2018-06-07T06:47:28.840Z,51.78
2018-06-07T06:48:33.633Z,51.31
2018-06-07T06:49:38.095Z,51.70
2018-06-07T06:50:42.680Z,51.15
2018-06-07T06:51:46.952Z,51.79
2018-06-07T06:52:51.264Z,51.76
2018-06-07T06:53:55.742Z,52.05
2018-06-07T06:55:00.165Z,51.19
2018-06-07T06:56:04.513Z,51.73
2018-06-07T06:57:08.781Z,51.55
2018-06-07T06:58:12.976Z,51.75
2018-06-07T06:59:17.643Z,51.59
2018-06-07T07:00:21.885Z,51.10
2018-06-07T07:01:26.503Z,51.22
2018-06-07T07:02:31.022Z,51.16
2018-06-07T07:03:35.348Z,50.73
2018-06-07T07:04:40.378Z,51.38
2018-06-07T07:05:44.749Z,51.61
2018-06-07T07:06:49.079Z,51.25
2018-06-07T07:07:53.276Z,51.59
2018-06-07T07:08:57.652Z,51.46
2018-06-07T07:10:02.140Z,50.57
2018-06-07T07:11:06.539Z,50.98
2018-06-07T07:12:11.202Z,50.73
2018-06-07T07:13:15.502Z,50.96
2018-06-07T07:14:19.847Z,50.50
2018-06-07T07:15:24.122Z,51.53
2018-06-07T07:16:28.356Z,51.24
2018-06-07T07:17:32.822Z,51.63
2018-06-07T07:18:37.057Z,51.06
2018-06-07T07:19:41.725Z,50.84
2018-06-07T07:20:46.029Z,51.00
2018-06-07T07:21:50.545Z,50.49
2018-06-07T07:22:54.742Z,51.32
2018-06-07T07:23:59.049Z,51.58
2018-06-07T07:25:03.435Z,51.68
2018-06-07T07:26:07.831Z,50.82
2018-06-07T07:27:12.185Z,51.63
2018-06-07T07:28:16.392Z,51.63
2018-06-07T07:29:20.675Z,51.25
2018-06-07T07:30:25.222Z,51.77
2018-06-07T07:31:29.709Z,51.66
2018-06-07T07:32:34.181Z,51.16
2018-06-07T07:33:38.582Z,51.67
2018-06-07T07:34:43.318Z,51.54
2018-06-07T07:35:47.888Z,51.44
2018-06-07T07:36:52.175Z,51.50
2018-06-07T07:37:56.611Z,51.09
2018-06-07T07:39:01.352Z,51.41
2018-06-07T07:40:05.827Z,51.11
2018-06-07T07:41:10.128Z,50.88
2018-06-07T07:42:14.375Z,51.41
2018-06-07T07:43:18.812Z,51.53
2018-06-07T07:44:23.268Z,51.12
2018-06-07T07:45:27.722Z,50.83
2018-06-07T07:46:32.423Z,51.80
2018-06-07T07:47:37.018Z,50.87
2018-06-07T07:48:41.457Z,51.68
2018-06-07T07:49:45.947Z,51.45
2018-06-07T07:50:50.509Z,52.05
2018-06-07T07:51:54.855Z,51.85
2018-06-07T07:52:59.205Z,51.74
2018-06-07T07:54:03.936Z,51.60
2018-06-07T07:55:08.534Z,51.41
2018-06-07T07:56:13.131Z,51.54
2018-06-07T07:57:17.716Z,51.88
2018-06-07T07:58:22.039Z,51.68
2018-06-07T07:59:26.634Z,51.22
2018-06-07T08:00:30.909Z,51.71
2018-06-07T08:01:35.452Z,50.97
2018-06-07T08:02:39.783Z,50.92
2018-06-07T08:03:44.141Z,51.42
2018-06-07T08:04:48.535Z,51.67
2018-06-07T08:05:52.826Z,51.23
2018-06-07T08:06:57.355Z,50.82
2018-06-07T08:08:01.725Z,51.37
2018-06-07T08:09:06.520Z,50.99
2018-06-07T08:10:10.822Z,51.58
2018-06-07T08:11:15.618Z,51.19
2018-06-07T08:12:19.988Z,51.73
2018-06-07T08:13:24.336Z,51.02
2018-06-07T08:14:28.527Z,51.03
2018-06-07T08:15:32.849Z,51.49
2018-06-07T08:16:37.091Z,51.00
2018-06-07T08:17:41.609Z,50.77
2018-06-07T08:18:46.119Z,50.68
2018-06-07T08:19:50.392Z,51.09
2018-06-07T08:20:54.925Z,50.97
2018-06-07T08:21:59.576Z,50.35
2018-06-07T08:23:03.826Z,50.95
2018-06-07T08:24:08.234Z,50.79
2018-06-07T08:25:12.780Z,50.93
2018-06-07T08:26:17.260Z,51.50
2018-06-07T08:27:21.696Z,51.00
2018-06-07T08:28:26.174Z,51.02
2018-06-07T08:29:30.740Z,51.38
2018-06-07T08:30:35.119Z,51.50
2018-06-07T08:31:39.659Z,50.48
2018-06-07T08:32:43.903Z,50.61
2018-06-07T08:33:48.152Z,50.87
2018-06-07T08:34:52.513Z,51.01
2018-06-07T08:35:57.063Z,51.30
2018-06-07T08:37:01.607Z,50.64
2018-06-07T08:38:05.923Z,51.24
2018-06-07T08:39:10.194Z,50.91
2018-06-07T08:40:14.506Z,50.90
2018-06-07T08:41:19.301Z,50.85
2018-06-07T08:42:23.752Z,50.71
2018-06-07T08:43:28.056Z,50.96
2018-06-07T08:44:32.404Z,50.72
2018-06-07T08:45:36.665Z,50.75
2018-06-07T08:46:41.496Z,50.88
2018-06-07T08:47:45.831Z,50.43
2018-06-07T08:48:50.268Z,50.50
2018-06-07T08:49:54.827Z,50.64
2018-06-07T08:50:59.131Z,50.81
2018-06-07T08:52:03.531Z,50.45
2018-06-07T08:53:07.884Z,51.21
2018-06-07T08:54:12.432Z,50.39
2018-06-07T08:55:16.693Z,50.45
2018-06-07T08:56:21.291Z,50.61
2018-06-07T08:57:25.752Z,50.25
2018-06-07T08:58:30.072Z,49.88
2018-06-07T08:59:34.707Z,50.30
2018-06-07T09:00:38.926Z,50.67
2018-06-07T09:01:43.571Z,50.60
2018-06-07T09:02:48.288Z,49.84
2018-06-07T09:03:52.660Z,50.12
2018-06-07T09:04:57.270Z,49.45
2018-06-07T09:06:01.588Z,49.50
2018-06-07T09:07:05.979Z,49.51
2018-06-07T09:08:10.315Z,49.92
2018-06-07T09:09:14.882Z,49.25
2018-06-07T09:10:19.221Z,49.65
2018-06-07T09:11:23.728Z,49.18
2018-06-07T09:12:28.213Z,49.91
2018-06-07T09:13:32.629Z,49.20
2018-06-07T09:14:37.023Z,49.71
2018-06-07T09:15:41.321Z,49.76
2018-06-07T09:16:45.593Z,49.02
2018-06-07T09:17:49.865Z,49.88
2018-06-07T09:18:54.089Z,50.03
2018-06-07T09:19:58.410Z,49.50
2018-06-07T09:21:03.660Z,49.75
2018-06-07T09:22:08.056Z,49.53
2018-06-07T09:23:12.436Z,49.86
2018-06-07T09:24:16.695Z,49.19
2018-06-07T09:25:21.635Z,49.30
2018-06-07T09:26:32.643Z,49.61
2018-06-07T09:27:37.123Z,49.48
2018-06-07T09:28:41.386Z,49.67
2018-06-07T09:29:46.063Z,48.97
2018-06-07T09:30:50.572Z,49.04
2018-06-07T09:31:54.963Z,49.06
2018-06-07T09:32:59.368Z,48.77
2018-06-07T09:34:03.915Z,48.47
2018-06-07T09:35:08.255Z,48.76
2018-06-07T09:36:12.628Z,48.66
2018-06-07T09:37:17.437Z,48.16
2018-06-07T09:38:21.802Z,48.19
2018-06-07T09:39:26.286Z,48.11
2018-06-07T09:40:30.645Z,48.12
2018-06-07T09:41:34.974Z,48.63
2018-06-07T09:42:39.710Z,48.85
2018-06-07T09:43:43.991Z,48.51
2018-06-07T09:44:48.414Z,48.35
2018-06-07T09:45:53.309Z,48.77
2018-06-07T09:46:58.347Z,48.24
2018-06-07T09:48:02.678Z,48.10
2018-06-07T09:49:07.200Z,47.84
2018-06-07T09:50:11.650Z,48.53
2018-06-07T09:51:15.967Z,48.11
2018-06-07T09:52:20.468Z,47.73
2018-06-07T09:53:24.790Z,48.30
2018-06-07T09:54:29.091Z,48.67
2018-06-07T09:55:33.689Z,47.74
2018-06-07T09:56:38.123Z,48.10
2018-06-07T09:57:43.045Z,48.07
2018-06-07T09:58:47.845Z,48.14
2018-06-07T09:59:52.208Z,48.05
2018-06-07T10:00:56.495Z,47.99
2018-06-07T10:02:00.736Z,48.14
2018-06-07T10:03:05.086Z,47.47
2018-06-07T10:04:09.457Z,47.97
2018-06-07T10:05:13.774Z,48.04
2018-06-07T10:06:18.107Z,47.27
2018-06-07T10:07:22.371Z,47.49
2018-06-07T10:08:26.842Z,47.33
2018-06-07T10:09:31.086Z,47.61
2018-06-07T10:10:35.631Z,47.54
2018-06-07T10:11:40.404Z,47.92
2018-06-07T10:12:44.786Z,47.25
2018-06-07T10:13:49.579Z,47.66
2018-06-07T10:14:54.195Z,46.74
2018-06-07T10:15:58.515Z,46.75
2018-06-07T10:17:03.035Z,46.71
2018-06-07T10:18:07.497Z,47.26
2018-06-07T10:19:11.772Z,46.70
2018-06-07T10:20:16.131Z,47.28
2018-06-07T10:21:20.732Z,47.37
2018-06-07T10:22:25.247Z,46.85
2018-06-07T10:23:29.581Z,47.05
2018-06-07T10:24:33.961Z,46.54
2018-06-07T10:25:38.688Z,46.66
2018-06-07T10:26:43.394Z,46.65
2018-06-07T10:27:47.913Z,45.94
2018-06-07T10:28:58.924Z,45.80
2018-06-07T10:30:03.239Z,45.87
2018-06-07T10:31:07.644Z,45.71
2018-06-07T10:32:12.056Z,45.54
2018-06-07T10:33:16.385Z,46.00
2018-06-07T10:34:20.826Z,45.60
2018-06-07T10:35:25.503Z,45.32
2018-06-07T10:36:29.819Z,45.28
2018-06-07T10:37:34.052Z,45.42
2018-06-07T10:38:38.574Z,45.38
2018-06-07T10:39:42.971Z,45.25
2018-06-07T10:40:47.347Z,45.37
2018-06-07T10:41:52.121Z,45.52
2018-06-07T10:42:56.439Z,45.33
2018-06-07T10:44:00.827Z,45.47
2018-06-07T10:45:05.200Z,45.49
2018-06-07T10:46:09.530Z,45.61
2018-06-07T10:47:14.142Z,45.65
2018-06-07T10:48:18.652Z,45.87
2018-06-07T10:49:22.868Z,46.26
2018-06-07T10:50:27.326Z,46.55
2018-06-07T10:51:31.753Z,46.29
2018-06-07T10:52:36.130Z,46.81
2018-06-07T10:53:40.591Z,46.59
2018-06-07T10:54:45.008Z,46.57
2018-06-07T10:55:49.395Z,46.68
2018-06-07T10:56:53.938Z,46.56
2018-06-07T10:57:58.310Z,46.44
2018-06-07T10:59:02.673Z,46.48
2018-06-07T11:00:07.126Z,46.43
2018-06-07T11:01:11.559Z,46.85
2018-06-07T11:02:16.151Z,46.80
2018-06-07T11:03:20.568Z,46.75
2018-06-07T11:04:24.833Z,47.46
2018-06-07T11:05:29.449Z,47.13
2018-06-07T11:06:33.785Z,47.03
2018-06-07T11:07:38.132Z,46.92
2018-06-07T11:08:42.485Z,47.05
2018-06-07T11:09:46.803Z,46.92
2018-06-07T11:10:51.267Z,47.36
2018-06-07T11:11:55.920Z,47.55
2018-06-07T11:13:00.610Z,47.24
2018-06-07T11:14:05.660Z,47.57
2018-06-07T11:15:09.869Z,47.67
2018-06-07T11:16:14.263Z,47.58
2018-06-07T11:17:18.803Z,47.74
2018-06-07T11:18:23.122Z,47.31
2018-06-07T11:19:27.514Z,47.43
2018-06-07T11:20:31.788Z,47.27
2018-06-07T11:21:36.154Z,47.23
2018-06-07T11:22:40.794Z,46.58
2018-06-07T11:23:45.962Z,47.21
2018-06-07T11:24:49.410Z,47.05
2018-06-07T11:25:53.808Z,47.23
2018-06-07T11:26:58.210Z,46.81
2018-06-07T11:28:02.619Z,47.17
2018-06-07T11:29:07.305Z,47.25
2018-06-07T11:30:14.296Z,47.35
2018-06-07T11:31:18.881Z,47.52
2018-06-07T11:32:23.322Z,46.58
2018-06-07T11:33:27.648Z,46.28
2018-06-07T11:34:32.000Z,46.60
2018-06-07T11:35:36.360Z,46.54
2018-06-07T11:36:40.663Z,46.35
2018-06-07T11:37:44.960Z,46.24
2018-06-07T11:38:49.550Z,46.44
2018-06-07T11:39:54.008Z,46.59
2018-06-07T11:40:58.408Z,47.33
2018-06-07T11:42:02.827Z,46.52
2018-06-07T11:43:07.573Z,47.06
2018-06-07T11:44:11.817Z,47.00
2018-06-07T11:45:16.338Z,47.54
2018-06-07T11:46:20.954Z,47.21
2018-06-07T11:47:25.480Z,47.33
2018-06-07T11:48:29.803Z,47.51
2018-06-07T11:49:34.348Z,47.53
2018-06-07T11:50:38.836Z,47.04
2018-06-07T11:51:43.221Z,47.29
2018-06-07T11:52:47.759Z,47.25
2018-06-07T11:53:52.070Z,47.46
2018-06-07T11:54:56.647Z,46.86
2018-06-07T11:56:01.302Z,47.02
2018-06-07T11:57:05.951Z,46.89
2018-06-07T11:58:10.249Z,46.41
2018-06-07T11:59:14.581Z,45.95
2018-06-07T12:00:19.003Z,46.48
2018-06-07T12:01:23.425Z,46.48
2018-06-07T12:02:27.941Z,46.29
2018-06-07T12:03:32.272Z,46.01
2018-06-07T12:04:36.781Z,45.79
2018-06-07T12:05:41.143Z,45.42
2018-06-07T12:06:45.877Z,45.67
2018-06-07T12:07:50.380Z,45.87
2018-06-07T12:08:55.282Z,46.36
2018-06-07T12:09:59.708Z,46.03
2018-06-07T12:11:04.116Z,46.22
2018-06-07T12:12:08.490Z,45.96
2018-06-07T12:13:12.770Z,46.35
2018-06-07T12:14:17.358Z,46.26
2018-06-07T12:15:22.417Z,46.24
2018-06-07T12:16:26.786Z,46.09
2018-06-07T12:17:31.518Z,46.05
2018-06-07T12:18:36.117Z,45.61
2018-06-07T12:19:40.512Z,45.89
2018-06-07T12:20:44.790Z,45.62
2018-06-07T12:21:49.666Z,45.45
2018-06-07T12:22:54.130Z,45.55
2018-06-07T12:23:58.562Z,45.63
2018-06-07T12:25:03.027Z,45.76
2018-06-07T12:26:07.785Z,45.97
2018-06-07T12:27:12.179Z,46.31
2018-06-07T12:28:16.482Z,45.87
2018-06-07T12:29:21.009Z,45.89
2018-06-07T12:30:25.299Z,46.12
2018-06-07T12:31:29.754Z,45.44
2018-06-07T12:32:34.044Z,45.58
2018-06-07T12:33:38.602Z,45.39
2018-06-07T12:34:43.551Z,45.34
2018-06-07T12:35:48.279Z,45.68
2018-06-07T12:36:52.637Z,46.12
2018-06-07T12:37:57.184Z,46.20
2018-06-07T12:39:01.687Z,46.15
2018-06-07T12:40:06.371Z,46.17
2018-06-07T12:41:10.859Z,45.47
2018-06-07T12:42:15.430Z,46.07
2018-06-07T12:43:19.835Z,45.91
2018-06-07T12:44:24.248Z,46.23
2018-06-07T12:45:28.632Z,45.71
2018-06-07T12:46:33.332Z,45.68
2018-06-07T12:47:37.995Z,45.25
2018-06-07T12:48:42.422Z,45.12
2018-06-07T12:49:46.959Z,45.92
2018-06-07T12:50:51.342Z,45.45
2018-06-07T12:51:55.813Z,45.32
2018-06-07T12:53:00.017Z,45.54
2018-06-07T12:54:04.674Z,45.36
2018-06-07T12:55:09.304Z,45.43
2018-06-07T12:56:13.653Z,45.34
2018-06-07T12:57:18.377Z,45.20
2018-06-07T12:58:22.708Z,46.20
2018-06-07T12:59:27.248Z,45.66
2018-06-07T13:00:31.633Z,45.60
2018-06-07T13:01:36.146Z,45.71
2018-06-07T13:02:46.920Z,45.71
2018-06-07T13:03:51.131Z,45.09
2018-06-07T13:04:55.418Z,45.64
2018-06-07T13:05:59.973Z,45.25
2018-06-07T13:07:04.333Z,45.96
2018-06-07T13:08:09.032Z,45.62
2018-06-07T13:09:13.318Z,45.71
2018-06-07T13:10:18.007Z,44.93
2018-06-07T13:11:22.863Z,45.11
2018-06-07T13:12:27.613Z,44.54
2018-06-07T13:13:32.824Z,44.50
2018-06-07T13:14:37.450Z,44.32
2018-06-07T13:15:41.871Z,44.43
2018-06-07T13:16:46.691Z,44.70
2018-06-07T13:17:51.076Z,44.29
2018-06-07T13:18:55.481Z,44.34
2018-06-07T13:20:00.027Z,44.12
2018-06-07T13:21:04.737Z,44.05
2018-06-07T13:22:09.476Z,43.82
2018-06-07T13:23:14.344Z,43.74
2018-06-07T13:24:18.654Z,43.80
2018-06-07T13:25:23.122Z,43.56
2018-06-07T13:26:27.532Z,43.39
2018-06-07T13:27:32.028Z,43.25
2018-06-07T13:28:36.655Z,42.95
2018-06-07T13:29:41.003Z,42.53
2018-06-07T13:30:45.681Z,42.29
2018-06-07T13:31:50.099Z,42.02
2018-06-07T13:32:54.492Z,42.16
2018-06-07T13:33:59.198Z,42.35
2018-06-07T13:35:03.724Z,42.13
2018-06-07T13:36:09.849Z,42.07
2018-06-07T13:37:14.128Z,41.79
2018-06-07T13:38:18.724Z,41.71
2018-06-07T13:39:23.261Z,41.80
2018-06-07T13:40:27.605Z,41.53
2018-06-07T13:41:31.989Z,41.27
2018-06-07T13:42:36.310Z,41.36
2018-06-07T13:43:40.836Z,41.57
2018-06-07T13:44:45.155Z,41.74
2018-06-07T13:45:49.741Z,41.26
2018-06-07T13:46:54.004Z,41.29
2018-06-07T13:47:58.804Z,41.26
2018-06-07T13:49:03.351Z,41.37
2018-06-07T13:50:07.799Z,41.67
2018-06-07T13:51:12.187Z,42.01
2018-06-07T13:52:16.639Z,42.31
2018-06-07T13:53:21.138Z,42.51
2018-06-07T13:54:25.661Z,42.21